Time;durP1;ratioP1;P1;durP2;ratioP2;P2;SDS_P1;SDS_P2;PMS_P1;PMS_P2;Temp;Humidity;BMP_temperature;BMP_pressure;BME280_temperature;BME280_humidity;BME280_pressure;Samples;Min_cycle;Max_cycle;Signal;HPM_P1;HPM_P2
2022/08/13 00:00:59;;;;;;;;;;;;;;;;;;5059465;28;20434;-76
2022/08/13 00:03:26;;;;;;;;;;;;;;;;;;5056169;28;20375;-76
2022/08/13 00:05:54;;;;;;;;;;;;;;;;;;5072283;28;19960;-77
2022/08/13 00:08:22;;;;;;;;;;;;;;;;;;5076657;28;19924;-76
2022/08/13 00:10:51;;;;;;;;;;;;;;;;;;5074349;28;19925;-77
2022/08/13 00:13:17;;;;;;;;;;;;;;;;;;5069828;28;19972;-76
2022/08/13 00:15:45;;;;;;;;;;;;;;;;;;5076159;28;19929;-76
2022/08/13 00:18:12;;;;;;;;;;;;;;;;;;5076157;28;19924;-76
2022/08/13 00:20:40;;;;;;;;;;;;;;;;;;5075975;28;20062;-76
2022/08/13 00:23:08;;;;;;;;;;;;;;;;;;5075946;28;19964;-76
2022/08/13 00:25:34;;;;;;;;;;;;;;;;;;5067820;28;19983;-77
2022/08/13 00:28:04;;;;;;;;;;;;;;;;;;5075334;28;19947;-76
2022/08/13 00:30:33;;;;;;;;;;;;;;;;;;5075492;28;19924;-76
2022/08/13 00:33:00;;;;;;;;;;;;;;;;;;5075805;28;20003;-76
2022/08/13 00:35:28;;;;;;;;;;;;;;;;;;5074322;28;19960;-77
2022/08/13 00:37:57;;;;;;;;;;;;;;;;;;5075612;28;19932;-77
2022/08/13 00:40:23;;;;;;;;;;;;;;;;;;5075263;28;19974;-75
2022/08/13 00:42:52;;;;;;;;;;;;;;;;;;5075299;28;19975;-76
2022/08/13 00:45:20;;;;;;;;;;;;;;;;;;5061770;28;19925;-76
2022/08/13 00:50:32;;;;;;;;;;;;;;;;;;5068231;28;20005;-76
2022/08/13 00:52:58;;;;;;;;;;;;;;;;;;5075286;28;19924;-76
2022/08/13 00:55:25;;;;;;;;;;;;;;;;;;5062522;28;20024;-76
2022/08/13 00:57:51;;;;;;;;;;;;;;;;;;5054994;28;19974;-76
2022/08/13 01:00:22;;;;;;;;;;;;;;;;;;5057263;28;20012;-76
2022/08/13 01:02:49;;;;;;;;;;;;;;;;;;5075224;28;19978;-77
2022/08/13 01:05:16;;;;;;;;;;;;;;;;;;5075198;28;19929;-76
2022/08/13 01:07:43;;;;;;;;;;;;;;;;;;5074863;28;20371;-77
2022/08/13 01:10:13;;;;;;;;;;;;;;;;;;5074677;28;20288;-75
2022/08/13 01:12:40;;;;;;;;;;;;;;;;;;5075112;28;19964;-76
2022/08/13 01:15:07;;;;;;;;;;;;;;;;;;5074865;28;20007;-75
2022/08/13 01:17:35;;;;;;;;;;;;;;;;;;5075028;28;20023;-76
2022/08/13 01:20:03;;;;;;;;;;;;;;;;;;5058056;28;19967;-77
2022/08/13 01:22:32;;;;;;;;;;;;;;;;;;5075419;28;19967;-77
2022/08/13 01:25:01;;;;;;;;;;;;;;;;;;5074202;28;20303;-77
2022/08/13 01:27:28;;;;;;;;;;;;;;;;;;5075022;28;19933;-78
2022/08/13 01:29:56;;;;;;;;;;;;;;;;;;5074257;28;19960;-76
2022/08/13 01:32:23;;;;;;;;;;;;;;;;;;5074678;28;19931;-76
2022/08/13 01:34:50;;;;;;;;;;;;;;;;;;5072770;28;19974;-78
2022/08/13 01:37:17;;;;;;;;;;;;;;;;;;5066922;28;19925;-76
2022/08/13 01:39:45;;;;;;;;;;;;;;;;;;5061156;28;20027;-75
2022/08/13 01:42:20;;;;;;;;;;;;;;;;;;5074634;28;20019;-76
2022/08/13 01:44:48;;;;;;;;;;;;;;;;;;5074280;28;20015;-76
2022/08/13 01:52:45;;;;;;;;;;;;;;;;;;5063338;28;19930;-75
2022/08/13 01:55:13;;;;;;;;;;;;;;;;;;5073806;28;19931;-76
2022/08/13 01:57:43;;;;;;;;;;;;;;;;;;5074099;28;20019;-76
2022/08/13 02:00:13;;;;;;;;;;;;;;;;;;5073367;28;19973;-75
2022/08/13 02:02:42;;;;;;;;;;;;;;;;;;5073826;28;19932;-75
2022/08/13 02:05:10;;;;;;;;;;;;;;;;;;5065362;28;20398;-76
2022/08/13 02:07:37;;;;;;;;;;;;;;;;;;5074025;28;19932;-76
2022/08/13 02:10:04;;;;;;;;;;;;;;;;;;5073418;28;19925;-76
2022/08/13 02:12:32;;;;;;;;;;;;;;;;;;5073445;28;19924;-75
2022/08/13 02:15:01;;;;;;;;;;;;;;;;;;5053364;28;20449;-76
2022/08/13 02:17:27;;;;;;;;;;;;;;;;;;5053191;28;19925;-76
2022/08/13 02:19:55;;;;;;;;;;;;;;;;;;5053419;28;19925;-76
2022/08/13 02:22:22;;;;;;;;;;;;;;;;;;5067949;28;19964;-76
2022/08/13 02:24:49;;;;;;;;;;;;;;;;;;5073162;28;20010;-77
2022/08/13 02:27:18;;;;;;;;;;;;;;;;;;5071207;28;19940;-75
2022/08/13 02:29:46;;;;;;;;;;;;;;;;;;5053372;28;19932;-75
2022/08/13 02:32:12;;;;;;;;;;;;;;;;;;5053533;28;20015;-75
2022/08/13 02:34:39;;;;;;;;;;;;;;;;;;5054947;28;20007;-75
2022/08/13 02:37:06;;;;;;;;;;;;;;;;;;5053804;28;19929;-76
2022/08/13 02:39:32;;;;;;;;;;;;;;;;;;5053309;28;19925;-76
2022/08/13 02:41:58;;;;;;;;;;;;;;;;;;5053406;28;19925;-76
2022/08/13 02:44:25;;;;;;;;;;;;;;;;;;5053615;28;20339;-76
2022/08/13 02:46:53;;;;;;;;;;;;;;;;;;5053084;28;20282;-75
2022/08/13 02:49:21;;;;;;;;;;;;;;;;;;5052959;28;20510;-75
2022/08/13 02:51:49;;;;;;;;;;;;;;;;;;5053421;28;19932;-76
2022/08/13 02:54:20;;;;;;;;;;;;;;;;;;5053201;28;19926;-76
2022/08/13 02:56:47;;;;;;;;;;;;;;;;;;5053139;28;19975;-76
2022/08/13 03:02:18;;;;;;;;;;;;;;;;;;5069244;28;19928;-76
2022/08/13 03:04:45;;;;;;;;;;;;;;;;;;5073336;28;19931;-76
2022/08/13 03:07:11;;;;;;;;;;;;;;;;;;5073221;28;20014;-76
2022/08/13 03:09:38;;;;;;;;;;;;;;;;;;5072853;28;19925;-76
2022/08/13 03:12:05;;;;;;;;;;;;;;;;;;5072816;28;19924;-77
2022/08/13 03:14:32;;;;;;;;;;;;;;;;;;5072629;28;20011;-76
2022/08/13 03:16:58;;;;;;;;;;;;;;;;;;5073000;28;19924;-76
2022/08/13 03:19:26;;;;;;;;;;;;;;;;;;5073916;28;19925;-75
2022/08/13 03:21:54;;;;;;;;;;;;;;;;;;5073394;28;19931;-76
2022/08/13 03:24:21;;;;;;;;;;;;;;;;;;5052528;28;20285;-77
2022/08/13 03:26:48;;;;;;;;;;;;;;;;;;5052724;28;19925;-76
2022/08/13 03:29:18;;;;;;;;;;;;;;;;;;5051838;28;19931;-74
2022/08/13 03:31:44;;;;;;;;;;;;;;;;;;5052315;28;20477;-76
2022/08/13 03:34:10;;;;;;;;;;;;;;;;;;5053063;28;19925;-76
2022/08/13 03:36:38;;;;;;;;;;;;;;;;;;5052543;28;19929;-76
2022/08/13 03:39:05;;;;;;;;;;;;;;;;;;5052721;28;19932;-76
2022/08/13 03:41:32;;;;;;;;;;;;;;;;;;5052281;28;20016;-75
2022/08/13 03:43:59;;;;;;;;;;;;;;;;;;5052282;28;20459;-76
2022/08/13 03:46:26;;;;;;;;;;;;;;;;;;5052468;28;19929;-76
2022/08/13 03:48:53;;;;;;;;;;;;;;;;;;5052481;28;19925;-76
2022/08/13 03:51:22;;;;;;;;;;;;;;;;;;5051905;28;20383;-77
2022/08/13 03:53:50;;;;;;;;;;;;;;;;;;5052311;28;19928;-77
2022/08/13 03:56:18;;;;;;;;;;;;;;;;;;5052303;28;20015;-77
2022/08/13 03:58:46;;;;;;;;;;;;;;;;;;5052344;28;19999;-76
2022/08/13 04:01:14;;;;;;;;;;;;;;;;;;5062141;28;19954;-76
2022/08/13 04:03:41;;;;;;;;;;;;;;;;;;5072455;28;19924;-76
2022/08/13 04:06:09;;;;;;;;;;;;;;;;;;5072532;28;20334;-75
2022/08/13 04:08:37;;;;;;;;;;;;;;;;;;5072285;28;19978;-76
2022/08/13 04:11:06;;;;;;;;;;;;;;;;;;5072257;28;19925;-77
2022/08/13 04:13:36;;;;;;;;;;;;;;;;;;5072677;28;19964;-76
2022/08/13 04:16:04;;;;;;;;;;;;;;;;;;5074664;28;19924;-77
2022/08/13 04:18:31;;;;;;;;;;;;;;;;;;5074734;28;20337;-76
2022/08/13 04:20:59;;;;;;;;;;;;;;;;;;5064225;28;19925;-77
2022/08/13 04:23:25;;;;;;;;;;;;;;;;;;5054224;28;20387;-76
2022/08/13 04:25:52;;;;;;;;;;;;;;;;;;5054318;28;19924;-77
2022/08/13 04:28:21;;;;;;;;;;;;;;;;;;5054406;28;19935;-77
2022/08/13 04:30:48;;;;;;;;;;;;;;;;;;5055286;28;19959;-75
2022/08/13 04:33:16;;;;;;;;;;;;;;;;;;5061793;28;19929;-76
2022/08/13 04:35:44;;;;;;;;;;;;;;;;;;5062643;28;19925;-76
2022/08/13 04:38:11;;;;;;;;;;;;;;;;;;5061372;28;19932;-75
2022/08/13 04:40:38;;;;;;;;;;;;;;;;;;5065479;28;19928;-75
2022/08/13 04:43:05;;;;;;;;;;;;;;;;;;5059811;28;20462;-76
2022/08/13 04:45:34;;;;;;;;;;;;;;;;;;5057036;28;19925;-76
2022/08/13 04:48:03;;;;;;;;;;;;;;;;;;5056048;28;19936;-77
2022/08/13 04:50:32;;;;;;;;;;;;;;;;;;5055754;28;19931;-77
2022/08/13 04:52:59;;;;;;;;;;;;;;;;;;5058088;28;19983;-78
2022/08/13 04:55:25;;;;;;;;;;;;;;;;;;5057898;28;19986;-76
2022/08/13 04:57:51;;;;;;;;;;;;;;;;;;5057915;28;20011;-77
2022/08/13 05:00:20;;;;;;;;;;;;;;;;;;5064202;28;20019;-77
2022/08/13 05:02:48;;;;;;;;;;;;;;;;;;5057938;28;19925;-76
2022/08/13 05:05:14;;;;;;;;;;;;;;;;;;5055685;28;20012;-76
2022/08/13 05:07:48;;;;;;;;;;;;;;;;;;5056229;28;19948;-76
2022/08/13 05:10:15;;;;;;;;;;;;;;;;;;5056133;28;19928;-76
2022/08/13 05:12:42;;;;;;;;;;;;;;;;;;5055644;28;20346;-76
2022/08/13 05:15:09;;;;;;;;;;;;;;;;;;5054730;28;19982;-75
2022/08/13 05:17:35;;;;;;;;;;;;;;;;;;5054838;28;19931;-76
2022/08/13 05:20:04;;;;;;;;;;;;;;;;;;5054445;28;20533;-76
2022/08/13 05:22:30;;;;;;;;;;;;;;;;;;5054930;28;19964;-76
2022/08/13 05:24:57;;;;;;;;;;;;;;;;;;5054834;28;20012;-76
2022/08/13 05:27:23;;;;;;;;;;;;;;;;;;5070010;28;19925;-76
2022/08/13 05:29:50;;;;;;;;;;;;;;;;;;5098394;22;19939;-79
2022/08/13 05:32:17;;;;;;;;;;;;;;;;;;5096902;28;19947;-79
2022/08/13 05:34:43;;;;;;;;;;;;;;;;;;5086771;28;19979;-80
2022/08/13 05:37:16;;;;;;;;;;;;;;;;;;5072276;28;19972;-80
2022/08/13 05:39:42;;;;;;;;;;;;;;;;;;5073139;28;19935;-80
2022/08/13 05:42:09;;;;;;;;;;;;;;;;;;5062007;28;19931;-80
2022/08/13 05:44:35;;;;;;;;;;;;;;;;;;5061687;28;19925;-80
2022/08/13 05:47:02;;;;;;;;;;;;;;;;;;5061769;28;19936;-80
2022/08/13 05:49:28;;;;;;;;;;;;;;;;;;5077250;28;19932;-80
2022/08/13 05:51:57;;;;;;;;;;;;;;;;;;5069585;28;20015;-80
2022/08/13 05:54:25;;;;;;;;;;;;;;;;;;5062777;28;19925;-80
2022/08/13 05:56:52;;;;;;;;;;;;;;;;;;5062837;28;20027;-81
2022/08/13 06:04:47;;;;;;;;;;;;;;;;;;5072399;28;19947;-80
2022/08/13 06:07:17;;;;;;;;;;;;;;;;;;5081253;28;19924;-80
2022/08/13 06:09:45;;;;;;;;;;;;;;;;;;5080142;28;19974;-80
2022/08/13 06:12:13;;;;;;;;;;;;;;;;;;5070216;28;20019;-79
2022/08/13 06:14:40;;;;;;;;;;;;;;;;;;5061843;28;19932;-80
2022/08/13 06:17:06;;;;;;;;;;;;;;;;;;5062884;28;19932;-80
2022/08/13 06:19:33;;;;;;;;;;;;;;;;;;5062237;28;19956;-80
2022/08/13 06:22:01;;;;;;;;;;;;;;;;;;5060129;28;19925;-79
2022/08/13 06:24:28;;;;;;;;;;;;;;;;;;5058186;28;19931;-80
2022/08/13 06:27:04;;;;;;;;;;;;;;;;;;5066726;28;19925;-80
2022/08/13 06:29:31;;;;;;;;;;;;;;;;;;5061509;28;20141;-80
2022/08/13 06:31:58;;;;;;;;;;;;;;;;;;5058348;28;19971;-80
2022/08/13 06:34:24;;;;;;;;;;;;;;;;;;5058300;28;19999;-80
2022/08/13 06:36:51;;;;;;;;;;;;;;;;;;5069677;28;19928;-80
2022/08/13 06:39:18;;;;;;;;;;;;;;;;;;5077910;28;20049;-80
2022/08/13 06:41:45;;;;;;;;;;;;;;;;;;5069192;28;19932;-80
2022/08/13 06:44:13;;;;;;;;;;;;;;;;;;5060761;28;19925;-79
2022/08/13 06:46:40;;;;;;;;;;;;;;;;;;5056358;28;19931;-79
2022/08/13 06:49:07;;;;;;;;;;;;;;;;;;5057094;28;20299;-79
2022/08/13 06:51:33;;;;;;;;;;;;;;;;;;5057267;28;20011;-79
2022/08/13 06:54:00;;;;;;;;;;;;;;;;;;5068974;28;19971;-80
2022/08/13 06:56:27;;;;;;;;;;;;;;;;;;5077175;28;19968;-79
2022/08/13 06:58:56;;;;;;;;;;;;;;;;;;5078514;28;20406;-78
2022/08/13 07:01:24;;;;;;;;;;;;;;;;;;5076830;28;19928;-79
2022/08/13 07:03:51;;;;;;;;;;;;;;;;;;5064695;28;20467;-79
2022/08/13 07:06:18;;;;;;;;;;;;;;;;;;5060134;28;19996;-79
2022/08/13 07:08:45;;;;;;;;;;;;;;;;;;5058434;28;19932;-79
2022/08/13 07:11:24;;;;;;;;;;;;;;;;;;5070398;28;20375;-79
2022/08/13 07:13:51;;;;;;;;;;;;;;;;;;5063775;28;19955;-79
2022/08/13 07:16:19;;;;;;;;;;;;;;;;;;5077638;28;19932;-79
2022/08/13 07:18:49;;;;;;;;;;;;;;;;;;5076746;28;20428;-78
2022/08/13 07:21:18;;;;;;;;;;;;;;;;;;5065946;28;19924;-79
2022/08/13 07:23:45;;;;;;;;;;;;;;;;;;5062740;28;19975;-78
2022/08/13 07:26:12;;;;;;;;;;;;;;;;;;5089679;28;19954;-79
2022/08/13 07:28:40;;;;;;;;;;;;;;;;;;5093562;22;19932;-66
2022/08/13 07:31:07;;;;;;;;;;;;;;;;;;5073177;28;19925;-67
2022/08/13 07:33:35;;;;;;;;;;;;;;;;;;5073463;28;19977;-67
2022/08/13 07:36:05;;;;;;;;;;;;;;;;;;5076826;28;19937;-67
2022/08/13 07:38:32;;;;;;;;;;;;;;;;;;5085114;28;19931;-67
2022/08/13 07:41:01;;;;;;;;;;;;;;;;;;5073033;28;19925;-67
2022/08/13 07:43:29;;;;;;;;;;;;;;;;;;5072737;28;19924;-67
2022/08/13 07:46:00;;;;;;;;;;;;;;;;;;5075828;28;19925;-67
2022/08/13 07:48:28;;;;;;;;;;;;;;;;;;5084779;28;19924;-67
2022/08/13 07:50:55;;;;;;;;;;;;;;;;;;5092670;28;20376;-66
2022/08/13 07:53:23;;;;;;;;;;;;;;;;;;5092629;28;19928;-66
2022/08/13 07:55:51;;;;;;;;;;;;;;;;;;5091747;28;20380;-68
2022/08/13 07:58:17;;;;;;;;;;;;;;;;;;5092829;28;19924;-66
2022/08/13 08:00:45;;;;;;;;;;;;;;;;;;5089240;28;20018;-66
2022/08/13 08:03:12;;;;;;;;;;;;;;;;;;5080905;28;19932;-66
2022/08/13 08:05:43;;;;;;;;;;;;;;;;;;5072615;28;19924;-66
2022/08/13 08:08:10;;;;;;;;;;;;;;;;;;5073101;28;19928;-66
2022/08/13 08:10:39;;;;;;;;;;;;;;;;;;5072292;28;19925;-66
2022/08/13 08:13:05;;;;;;;;;;;;;;;;;;5072688;28;19929;-66
2022/08/13 08:15:35;;;;;;;;;;;;;;;;;;5078251;28;19931;-68
2022/08/13 08:18:01;;;;;;;;;;;;;;;;;;5076751;28;19928;-66
2022/08/13 08:20:28;;;;;;;;;;;;;;;;;;5082819;28;19931;-66
2022/08/13 08:22:55;;;;;;;;;;;;;;;;;;5087379;28;19931;-66
2022/08/13 08:25:22;;;;;;;;;;;;;;;;;;5096195;28;19954;-67
2022/08/13 08:27:50;;;;;;;;;;;;;;;;;;5096718;28;19947;-66
2022/08/13 08:30:18;;;;;;;;;;;;;;;;;;5096707;28;19977;-66
2022/08/13 08:32:44;;;;;;;;;;;;;;;;;;5096442;28;20011;-67
2022/08/13 08:35:12;;;;;;;;;;;;;;;;;;5088649;28;19929;-67
2022/08/13 08:43:12;;;;;;;;;;;;;;;;;;5076427;28;19935;-65
2022/08/13 08:45:39;;;;;;;;;;;;;;;;;;5085280;28;19925;-66
2022/08/13 08:48:06;;;;;;;;;;;;;;;;;;5095607;28;20026;-66
2022/08/13 08:50:33;;;;;;;;;;;;;;;;;;5096047;28;19924;-67
2022/08/13 08:55:45;;;;;;;;;;;;;;;;;;5087526;28;19936;-67
2022/08/13 08:58:13;;;;;;;;;;;;;;;;;;5076393;28;20116;-67
2022/08/13 09:00:40;;;;;;;;;;;;;;;;;;5081442;28;20262;-66
2022/08/13 09:03:08;;;;;;;;;;;;;;;;;;5096250;28;19924;-67
2022/08/13 09:05:35;;;;;;;;;;;;;;;;;;5080885;28;19924;-67
2022/08/13 09:08:02;;;;;;;;;;;;;;;;;;5076218;28;19925;-67
2022/08/13 09:10:32;;;;;;;;;;;;;;;;;;5075417;28;19924;-67
2022/08/13 09:13:02;;;;;;;;;;;;;;;;;;5076018;28;19957;-66
2022/08/13 09:15:30;;;;;;;;;;;;;;;;;;5075844;28;20015;-67
2022/08/13 09:17:57;;;;;;;;;;;;;;;;;;5094957;28;19985;-67
2022/08/13 09:20:25;;;;;;;;;;;;;;;;;;5095733;28;19924;-67
2022/08/13 09:23:00;;;;;;;;;;;;;;;;;;5096694;28;19924;-67
2022/08/13 09:25:27;;;;;;;;;;;;;;;;;;5081129;28;20447;-67
2022/08/13 09:27:54;;;;;;;;;;;;;;;;;;5075493;28;20076;-67
2022/08/13 09:30:20;;;;;;;;;;;;;;;;;;5078114;28;20371;-66
2022/08/13 09:32:49;;;;;;;;;;;;;;;;;;5095632;28;19931;-67
2022/08/13 09:35:15;;;;;;;;;;;;;;;;;;5091438;28;19924;-67
2022/08/13 09:37:43;;;;;;;;;;;;;;;;;;5083284;28;19928;-67
2022/08/13 09:40:12;;;;;;;;;;;;;;;;;;5085916;28;20426;-67
2022/08/13 09:42:45;;;;;;;;;;;;;;;;;;5094858;28;19928;-66
2022/08/13 09:45:11;;;;;;;;;;;;;;;;;;5095139;28;20385;-67
2022/08/13 09:47:39;;;;;;;;;;;;;;;;;;5094187;28;20281;-66
2022/08/13 09:50:08;;;;;;;;;;;;;;;;;;5094858;28;19924;-66
2022/08/13 09:52:35;;;;;;;;;;;;;;;;;;5094747;28;19924;-66
2022/08/13 09:55:02;;;;;;;;;;;;;;;;;;5082021;28;19929;-67
2022/08/13 09:57:29;;;;;;;;;;;;;;;;;;5074417;28;19970;-67
2022/08/13 09:59:55;;;;;;;;;;;;;;;;;;5086264;28;19930;-67
2022/08/13 10:02:25;;;;;;;;;;;;;;;;;;5074998;28;19962;-65
2022/08/13 10:04:57;;;;;;;;;;;;;;;;;;5074995;28;19924;-67
2022/08/13 10:07:25;;;;;;;;;;;;;;;;;;5074178;28;19924;-67
2022/08/13 10:09:52;;;;;;;;;;;;;;;;;;5073793;28;19925;-67
2022/08/13 10:12:19;;;;;;;;;;;;;;;;;;5075118;28;20002;-67
2022/08/13 10:14:46;;;;;;;;;;;;;;;;;;5076299;28;19924;-66
2022/08/13 10:17:16;;;;;;;;;;;;;;;;;;5082395;28;19990;-66
2022/08/13 10:19:42;;;;;;;;;;;;;;;;;;5086639;28;19924;-68
2022/08/13 10:22:09;;;;;;;;;;;;;;;;;;5073913;28;19929;-66
2022/08/13 10:24:37;;;;;;;;;;;;;;;;;;5081126;28;19969;-67
2022/08/13 10:27:04;;;;;;;;;;;;;;;;;;5073445;28;19928;-67
2022/08/13 10:29:31;;;;;;;;;;;;;;;;;;5073342;28;20003;-66
2022/08/13 10:31:57;;;;;;;;;;;;;;;;;;5073855;28;20327;-66
2022/08/13 10:34:24;;;;;;;;;;;;;;;;;;5074190;28;20395;-65
2022/08/13 10:36:51;;;;;;;;;;;;;;;;;;5072979;28;20407;-65
2022/08/13 10:39:17;;;;;;;;;;;;;;;;;;5073443;28;19970;-66
2022/08/13 10:41:45;;;;;;;;;;;;;;;;;;5073405;28;19978;-65
2022/08/13 10:44:13;;;;;;;;;;;;;;;;;;5073654;28;20389;-66
2022/08/13 10:46:41;;;;;;;;;;;;;;;;;;5074056;28;19982;-66
2022/08/13 10:49:10;;;;;;;;;;;;;;;;;;5074244;28;20370;-67
2022/08/13 10:51:36;;;;;;;;;;;;;;;;;;5073463;28;20301;-69
2022/08/13 10:54:04;;;;;;;;;;;;;;;;;;5073538;28;19973;-68
2022/08/13 10:56:31;;;;;;;;;;;;;;;;;;5072509;28;19928;-66
2022/08/13 10:59:00;;;;;;;;;;;;;;;;;;5073304;28;20141;-66
2022/08/13 11:01:27;;;;;;;;;;;;;;;;;;5073464;28;20520;-68
2022/08/13 11:03:56;;;;;;;;;;;;;;;;;;5074003;28;19989;-67
2022/08/13 11:06:25;;;;;;;;;;;;;;;;;;5073214;28;19924;-67
2022/08/13 11:08:54;;;;;;;;;;;;;;;;;;5073148;28;19924;-66
2022/08/13 11:11:21;;;;;;;;;;;;;;;;;;5072580;28;20362;-66
2022/08/13 11:13:48;;;;;;;;;;;;;;;;;;5076432;28;19924;-67
2022/08/13 11:18:59;;;;;;;;;;;;;;;;;;5072671;28;20244;-62
2022/08/13 11:21:26;;;;;;;;;;;;;;;;;;5071981;28;19932;-65
2022/08/13 11:23:53;;;;;;;;;;;;;;;;;;5073729;28;19929;-66
2022/08/13 11:26:19;;;;;;;;;;;;;;;;;;5072638;28;19977;-66
2022/08/13 11:28:46;;;;;;;;;;;;;;;;;;5072557;28;19925;-64
2022/08/13 11:31:13;;;;;;;;;;;;;;;;;;5072873;28;19929;-66
2022/08/13 11:33:41;;;;;;;;;;;;;;;;;;5072916;28;19928;-67
2022/08/13 11:36:07;;;;;;;;;;;;;;;;;;5092645;22;19924;-82
2022/08/13 11:38:34;;;;;;;;;;;;;;;;;;5068788;28;19947;-78
2022/08/13 11:41:00;;;;;;;;;;;;;;;;;;5064783;28;19955;-78
2022/08/13 11:43:28;;;;;;;;;;;;;;;;;;5071565;28;19966;-79
2022/08/13 11:45:56;;;;;;;;;;;;;;;;;;5057651;28;19925;-78
2022/08/13 11:48:23;;;;;;;;;;;;;;;;;;5054279;28;19925;-79
2022/08/13 11:50:51;;;;;;;;;;;;;;;;;;5053424;28;19992;-80
2022/08/13 11:53:18;;;;;;;;;;;;;;;;;;5055565;28;19952;-80
2022/08/13 11:55:45;;;;;;;;;;;;;;;;;;5055393;28;20311;-79
2022/08/13 11:58:11;;;;;;;;;;;;;;;;;;5055687;28;19996;-80
2022/08/13 12:00:39;;;;;;;;;;;;;;;;;;5054853;28;19979;-80
2022/08/13 12:03:29;;;;;;;;;;;;;;;;;;5056779;28;19976;-80
2022/08/13 12:05:56;;;;;;;;;;;;;;;;;;5054856;28;19928;-80
2022/08/13 12:08:23;;;;;;;;;;;;;;;;;;5057247;28;19924;-82
2022/08/13 12:10:49;;;;;;;;;;;;;;;;;;5057010;28;19970;-81
2022/08/13 12:13:16;;;;;;;;;;;;;;;;;;5058074;28;19931;-80
2022/08/13 12:15:42;;;;;;;;;;;;;;;;;;5058524;28;19925;-79
2022/08/13 12:18:11;;;;;;;;;;;;;;;;;;5057946;28;19929;-80
2022/08/13 12:20:38;;;;;;;;;;;;;;;;;;5056546;28;20027;-80
2022/08/13 12:23:07;;;;;;;;;;;;;;;;;;5056557;28;20355;-80
2022/08/13 12:25:33;;;;;;;;;;;;;;;;;;5062633;28;19925;-80
2022/08/13 12:28:10;;;;;;;;;;;;;;;;;;5057035;28;19960;-82
2022/08/13 12:30:37;;;;;;;;;;;;;;;;;;5056096;28;19931;-79
2022/08/13 12:33:03;;;;;;;;;;;;;;;;;;5054691;28;19992;-80
2022/08/13 12:35:30;;;;;;;;;;;;;;;;;;5055305;28;19932;-81
2022/08/13 12:37:56;;;;;;;;;;;;;;;;;;5058940;28;19956;-81
2022/08/13 12:40:24;;;;;;;;;;;;;;;;;;5053935;28;19979;-80
2022/08/13 12:42:50;;;;;;;;;;;;;;;;;;5054482;28;20023;-81
2022/08/13 12:45:17;;;;;;;;;;;;;;;;;;5054847;28;20015;-81
2022/08/13 12:47:45;;;;;;;;;;;;;;;;;;5054377;28;20370;-81
2022/08/13 12:50:12;;;;;;;;;;;;;;;;;;5055235;28;19936;-81
2022/08/13 12:52:38;;;;;;;;;;;;;;;;;;5056118;28;19925;-80
2022/08/13 12:55:05;;;;;;;;;;;;;;;;;;5056448;28;20015;-80
2022/08/13 12:57:33;;;;;;;;;;;;;;;;;;5055859;28;19928;-81
2022/08/13 13:00:00;;;;;;;;;;;;;;;;;;5056786;28;19932;-80
2022/08/13 13:02:26;;;;;;;;;;;;;;;;;;5040797;28;19964;-78
2022/08/13 13:04:53;;;;;;;;;;;;;;;;;;5048515;28;19972;-79
2022/08/13 13:07:19;;;;;;;;;;;;;;;;;;5048216;28;19925;-78
2022/08/13 13:09:45;;;;;;;;;;;;;;;;;;5047927;28;19991;-78
2022/08/13 13:12:12;;;;;;;;;;;;;;;;;;5048164;28;19980;-78
2022/08/13 13:14:40;;;;;;;;;;;;;;;;;;5049281;28;19933;-79
2022/08/13 13:17:06;;;;;;;;;;;;;;;;;;5048854;28;20298;-79
2022/08/13 13:19:32;;;;;;;;;;;;;;;;;;5039460;28;19929;-80
2022/08/13 13:21:59;;;;;;;;;;;;;;;;;;5039740;28;19932;-80
2022/08/13 13:24:27;;;;;;;;;;;;;;;;;;5038693;28;19993;-79
2022/08/13 13:26:54;;;;;;;;;;;;;;;;;;5038310;28;19948;-81
2022/08/13 13:29:21;;;;;;;;;;;;;;;;;;5039379;28;19929;-78
2022/08/13 13:31:48;;;;;;;;;;;;;;;;;;5040994;28;19925;-79
2022/08/13 13:34:17;;;;;;;;;;;;;;;;;;5043412;28;20020;-78
2022/08/13 13:36:44;;;;;;;;;;;;;;;;;;5057441;28;19952;-79
2022/08/13 13:39:10;;;;;;;;;;;;;;;;;;5059403;28;19975;-80
2022/08/13 13:41:37;;;;;;;;;;;;;;;;;;5060719;28;19924;-78
2022/08/13 13:44:04;;;;;;;;;;;;;;;;;;5058596;28;20289;-80
2022/08/13 13:46:30;;;;;;;;;;;;;;;;;;5059433;28;20375;-80
2022/08/13 13:48:58;;;;;;;;;;;;;;;;;;5060716;28;19956;-81
2022/08/13 13:51:24;;;;;;;;;;;;;;;;;;5060700;28;19925;-79
2022/08/13 13:53:51;;;;;;;;;;;;;;;;;;5061352;28;20034;-80
2022/08/13 13:56:18;;;;;;;;;;;;;;;;;;5060192;28;20018;-78
2022/08/13 13:58:44;;;;;;;;;;;;;;;;;;5060999;28;19929;-80
2022/08/13 14:01:11;;;;;;;;;;;;;;;;;;5058915;28;19977;-80
2022/08/13 14:03:38;;;;;;;;;;;;;;;;;;5059243;28;19955;-80
2022/08/13 14:06:08;;;;;;;;;;;;;;;;;;5061375;28;19929;-79
2022/08/13 14:08:36;;;;;;;;;;;;;;;;;;5059965;28;19947;-80
2022/08/13 14:11:02;;;;;;;;;;;;;;;;;;5058883;28;19933;-80
2022/08/13 14:13:29;;;;;;;;;;;;;;;;;;5058910;28;19924;-80
2022/08/13 14:15:57;;;;;;;;;;;;;;;;;;5059658;28;20015;-78
2022/08/13 14:18:24;;;;;;;;;;;;;;;;;;5064297;28;19996;-79
2022/08/13 14:20:54;;;;;;;;;;;;;;;;;;5066926;28;19951;-79
2022/08/13 14:23:23;;;;;;;;;;;;;;;;;;5066416;28;19925;-77
2022/08/13 14:25:49;;;;;;;;;;;;;;;;;;5065448;28;19924;-79
2022/08/13 14:28:18;;;;;;;;;;;;;;;;;;5059937;28;19925;-81
2022/08/13 14:30:44;;;;;;;;;;;;;;;;;;5057381;28;19971;-81
2022/08/13 14:33:12;;;;;;;;;;;;;;;;;;5061102;28;19925;-80
2022/08/13 14:35:39;;;;;;;;;;;;;;;;;;5064758;28;19925;-79
2022/08/13 14:38:06;;;;;;;;;;;;;;;;;;5063051;28;19925;-80
2022/08/13 14:40:34;;;;;;;;;;;;;;;;;;5061458;28;19931;-79
2022/08/13 14:43:02;;;;;;;;;;;;;;;;;;5065576;28;20007;-78
2022/08/13 14:45:41;;;;;;;;;;;;;;;;;;5065396;28;19925;-79
2022/08/13 14:48:08;;;;;;;;;;;;;;;;;;5065484;28;19925;-79
2022/08/13 14:50:35;;;;;;;;;;;;;;;;;;5062514;28;19996;-80
2022/08/13 14:53:02;;;;;;;;;;;;;;;;;;5059571;28;19925;-79
2022/08/13 14:55:30;;;;;;;;;;;;;;;;;;5058254;28;19925;-80
2022/08/13 14:57:58;;;;;;;;;;;;;;;;;;5058777;28;20379;-79
2022/08/13 15:00:26;;;;;;;;;;;;;;;;;;5056688;28;19979;-81
2022/08/13 15:02:54;;;;;;;;;;;;;;;;;;5061803;28;19971;-80
2022/08/13 15:05:22;;;;;;;;;;;;;;;;;;5057818;28;19932;-80
2022/08/13 15:07:50;;;;;;;;;;;;;;;;;;5056605;28;19955;-80
2022/08/13 15:10:17;;;;;;;;;;;;;;;;;;5056122;28;20118;-80
2022/08/13 15:12:44;;;;;;;;;;;;;;;;;;5064859;28;20027;-78
2022/08/13 15:15:12;;;;;;;;;;;;;;;;;;5061420;28;19924;-80
2022/08/13 15:17:40;;;;;;;;;;;;;;;;;;5057066;28;19982;-80
2022/08/13 15:20:08;;;;;;;;;;;;;;;;;;5065817;28;19925;-78
2022/08/13 15:22:35;;;;;;;;;;;;;;;;;;5063153;28;20375;-80
2022/08/13 15:25:01;;;;;;;;;;;;;;;;;;5058291;28;19932;-81
2022/08/13 15:27:29;;;;;;;;;;;;;;;;;;5056251;28;19956;-81
2022/08/13 15:29:56;;;;;;;;;;;;;;;;;;5056156;28;19924;-81
2022/08/13 15:32:24;;;;;;;;;;;;;;;;;;5058403;28;19925;-79
2022/08/13 15:34:52;;;;;;;;;;;;;;;;;;5058333;28;20346;-79
2022/08/13 15:37:19;;;;;;;;;;;;;;;;;;5058679;28;19964;-79
2022/08/13 15:39:46;;;;;;;;;;;;;;;;;;5057970;28;19951;-80
2022/08/13 15:42:13;;;;;;;;;;;;;;;;;;5058140;28;19925;-80
2022/08/13 15:44:42;;;;;;;;;;;;;;;;;;5058073;28;19925;-79
2022/08/13 15:47:14;;;;;;;;;;;;;;;;;;5059441;28;19932;-78
2022/08/13 15:49:45;;;;;;;;;;;;;;;;;;5061336;28;19929;-80
2022/08/13 15:52:12;;;;;;;;;;;;;;;;;;5063735;28;19925;-79
2022/08/13 15:54:38;;;;;;;;;;;;;;;;;;5061312;28;19925;-80
2022/08/13 15:57:06;;;;;;;;;;;;;;;;;;5057880;28;20028;-80
2022/08/13 15:59:32;;;;;;;;;;;;;;;;;;5060964;28;19959;-80
2022/08/13 16:02:00;;;;;;;;;;;;;;;;;;5063151;28;19925;-79
2022/08/13 16:04:27;;;;;;;;;;;;;;;;;;5064597;28;19925;-79
2022/08/13 16:06:55;;;;;;;;;;;;;;;;;;5070316;28;19925;-78
2022/08/13 16:09:22;;;;;;;;;;;;;;;;;;5063572;28;19932;-79
2022/08/13 16:11:49;;;;;;;;;;;;;;;;;;5063308;28;19929;-80
2022/08/13 16:14:16;;;;;;;;;;;;;;;;;;5059538;28;19964;-79
2022/08/13 16:16:43;;;;;;;;;;;;;;;;;;5067498;28;19925;-78
2022/08/13 16:19:10;;;;;;;;;;;;;;;;;;5057546;28;19931;-80
2022/08/13 16:21:43;;;;;;;;;;;;;;;;;;5058677;28;19925;-79
2022/08/13 16:24:11;;;;;;;;;;;;;;;;;;5059925;28;20423;-81
2022/08/13 16:26:37;;;;;;;;;;;;;;;;;;5056813;28;19925;-80
2022/08/13 16:29:04;;;;;;;;;;;;;;;;;;5053489;28;20367;-79
2022/08/13 16:31:33;;;;;;;;;;;;;;;;;;5055335;28;20580;-82
2022/08/13 16:34:00;;;;;;;;;;;;;;;;;;5057357;28;19931;-81
2022/08/13 16:36:26;;;;;;;;;;;;;;;;;;5061549;28;19924;-80
2022/08/13 16:38:53;;;;;;;;;;;;;;;;;;5062132;28;19983;-79
2022/08/13 16:41:21;;;;;;;;;;;;;;;;;;5069265;28;19931;-78
2022/08/13 16:43:48;;;;;;;;;;;;;;;;;;5066288;28;19925;-79
2022/08/13 16:46:15;;;;;;;;;;;;;;;;;;5066265;28;19987;-80
2022/08/13 16:48:44;;;;;;;;;;;;;;;;;;5073370;28;19932;-80
2022/08/13 16:51:11;;;;;;;;;;;;;;;;;;5077167;28;19925;-80
2022/08/13 16:53:38;;;;;;;;;;;;;;;;;;5077912;28;19932;-78
2022/08/13 16:56:05;;;;;;;;;;;;;;;;;;5077880;28;19924;-79
2022/08/13 16:58:33;;;;;;;;;;;;;;;;;;5077834;28;19936;-80
2022/08/13 17:01:00;;;;;;;;;;;;;;;;;;5077155;28;19988;-79
2022/08/13 17:09:12;;;;;;;;;;;;;;;;;;5071452;28;19978;-78
2022/08/13 17:11:43;;;;;;;;;;;;;;;;;;5061831;28;20353;-77
2022/08/13 17:14:13;;;;;;;;;;;;;;;;;;5059845;28;20020;-79
2022/08/13 17:16:39;;;;;;;;;;;;;;;;;;5061793;28;19925;-78
2022/08/13 17:19:08;;;;;;;;;;;;;;;;;;5060784;28;19937;-78
2022/08/13 17:21:35;;;;;;;;;;;;;;;;;;5060702;28;19979;-79